createdAt,value
2023-04-07T00:03:24.657Z,0.70
2023-04-07T00:08:27.652Z,0.80
2023-04-07T00:13:30.901Z,0.80
2023-04-07T00:18:33.496Z,0.80
2023-04-07T00:23:36.340Z,0.80
2023-04-07T00:28:38.980Z,0.80
2023-04-07T00:33:41.643Z,0.80
2023-04-07T00:38:44.596Z,0.80
2023-04-07T00:43:47.391Z,0.80
2023-04-07T00:48:51.258Z,0.80
2023-04-07T00:53:55.810Z,0.80
2023-04-07T00:58:58.666Z,0.80
2023-04-07T01:04:22.968Z,0.80
2023-04-07T01:09:38.520Z,0.80
2023-04-07T01:14:51.036Z,0.80
2023-04-07T01:20:14.481Z,0.90
2023-04-07T01:25:54.567Z,0.90
2023-04-07T01:30:59.053Z,0.90
2023-04-07T01:36:03.324Z,0.90
2023-04-07T01:41:08.804Z,0.90
2023-04-07T01:46:11.430Z,0.90
2023-04-07T01:51:19.148Z,0.90
2023-04-07T01:56:22.121Z,0.90
2023-04-07T02:01:27.696Z,0.90
2023-04-07T02:06:39.401Z,0.90
2023-04-07T02:11:44.107Z,0.90
2023-04-07T02:16:49.049Z,0.90
2023-04-07T02:21:52.916Z,0.90
2023-04-07T02:26:56.467Z,0.90
2023-04-07T02:32:00.811Z,0.90
2023-04-07T02:37:05.568Z,0.90
2023-04-07T02:42:10.809Z,0.90
2023-04-07T02:47:13.508Z,0.90
2023-04-07T02:52:16.475Z,0.90
2023-04-07T02:57:19.515Z,0.90
2023-04-07T03:02:23.806Z,0.90
2023-04-07T03:07:26.640Z,0.90
2023-04-07T03:12:32.534Z,0.90
2023-04-07T03:17:35.636Z,0.90
2023-04-07T03:22:38.339Z,0.90
2023-04-07T03:27:45.755Z,0.90
2023-04-07T03:32:50.333Z,0.90
2023-04-07T03:37:53.819Z,0.90
2023-04-07T03:42:56.694Z,0.90
2023-04-07T03:47:59.502Z,0.90
2023-04-07T03:53:02.246Z,0.90
2023-04-07T03:58:07.141Z,0.90
2023-04-07T04:03:12.428Z,0.90
2023-04-07T04:08:32.930Z,0.90
2023-04-07T04:13:36.483Z,0.90
2023-04-07T04:18:41.101Z,0.90
2023-04-07T04:23:45.791Z,1.00
2023-04-07T04:28:48.748Z,1.00
2023-04-07T04:33:54.309Z,1.00
2023-04-07T04:38:59.820Z,1.10
2023-04-07T04:44:02.760Z,1.10
2023-04-07T04:49:07.583Z,1.10
2023-04-07T04:54:11.948Z,1.00
2023-04-07T04:59:15.307Z,1.10
2023-04-07T05:04:33.088Z,1.10
2023-04-07T05:09:46.512Z,1.10
2023-04-07T05:14:51.528Z,1.20
2023-04-07T05:19:54.803Z,1.10
2023-04-07T05:25:11.107Z,1.20
2023-04-07T05:30:16.364Z,1.20
2023-04-07T05:35:19.983Z,1.30
2023-04-07T05:40:30.639Z,1.30
2023-04-07T05:45:36.925Z,1.30
2023-04-07T05:50:40.082Z,1.30
2023-04-07T05:55:46.986Z,1.40
2023-04-07T06:01:01.577Z,1.40
2023-04-07T06:06:04.647Z,1.30
2023-04-07T06:11:07.683Z,1.30
2023-04-07T06:16:10.587Z,1.40
2023-04-07T06:21:13.809Z,1.50
2023-04-07T06:26:16.615Z,1.50
2023-04-07T06:31:19.502Z,1.50
2023-04-07T06:36:23.851Z,1.50
2023-04-07T06:41:29.319Z,1.60
2023-04-07T06:46:32.013Z,1.60
2023-04-07T06:51:34.839Z,1.60
2023-04-07T06:56:37.602Z,1.70
2023-04-07T07:01:40.622Z,1.70
2023-04-07T07:06:43.830Z,1.80
2023-04-07T07:11:46.480Z,1.70
2023-04-07T07:16:49.257Z,1.80
2023-04-07T07:21:51.916Z,1.80
2023-04-07T07:26:54.651Z,1.80
2023-04-07T07:31:57.844Z,1.70
2023-04-07T07:37:00.730Z,1.80
2023-04-07T07:42:03.408Z,1.80
2023-04-07T07:47:06.159Z,1.90
2023-04-07T07:52:10.304Z,2.00
2023-04-07T07:57:13.370Z,2.00
2023-04-07T08:02:16.280Z,2.10
2023-04-07T08:07:19.006Z,2.10
2023-04-07T08:12:22.878Z,2.00
2023-04-07T08:17:25.883Z,2.00
2023-04-07T08:22:28.620Z,2.10
2023-04-07T08:27:31.294Z,2.10
2023-04-07T08:32:38.089Z,2.10
2023-04-07T08:37:42.472Z,2.10
2023-04-07T08:42:49.410Z,2.20
2023-04-07T08:47:57.582Z,2.10
2023-04-07T08:53:06.352Z,2.10
2023-04-07T08:58:14.864Z,2.00
2023-04-07T09:03:18.791Z,2.20
2023-04-07T09:08:21.896Z,2.40
2023-04-07T09:13:25.893Z,2.30
2023-04-07T09:18:29.021Z,2.30
2023-04-07T09:23:37.011Z,2.20
2023-04-07T09:28:44.104Z,2.20
2023-04-07T09:33:47.645Z,2.20
2023-04-07T09:38:50.580Z,2.20
2023-04-07T09:43:58.561Z,2.20
2023-04-07T09:49:08.825Z,2.10
2023-04-07T09:54:11.697Z,2.10
2023-04-07T09:59:16.804Z,2.30
2023-04-07T10:04:19.974Z,2.40
2023-04-07T10:09:29.743Z,2.30
2023-04-07T10:14:33.396Z,2.40
2023-04-07T10:19:36.843Z,2.40
2023-04-07T10:24:56.806Z,2.40
2023-04-07T10:30:00.638Z,2.40
2023-04-07T10:35:03.457Z,2.50
2023-04-07T10:40:36.166Z,2.50
2023-04-07T10:45:53.730Z,3.10
2023-04-07T10:51:05.751Z,3.50
2023-04-07T10:56:08.601Z,3.20
2023-04-07T11:01:12.032Z,3.10
2023-04-07T11:06:15.116Z,3.10
2023-04-07T11:11:38.601Z,3.10
2023-04-07T11:16:43.780Z,3.00
2023-04-07T11:21:47.100Z,3.10
2023-04-07T11:26:50.667Z,3.10
2023-04-07T11:31:53.737Z,3.20
2023-04-07T11:37:00.546Z,3.20
2023-04-07T11:42:03.502Z,3.20
2023-04-07T11:47:06.718Z,3.00
2023-04-07T11:52:09.625Z,3.20
2023-04-07T11:57:13.188Z,3.20
2023-04-07T12:02:35.207Z,3.20
2023-04-07T12:07:39.033Z,3.20
2023-04-07T12:12:46.578Z,3.10
2023-04-07T12:17:49.815Z,3.20
2023-04-07T12:22:53.165Z,3.20
2023-04-07T12:27:56.128Z,3.20
2023-04-07T12:32:59.012Z,3.20
2023-04-07T12:38:02.069Z,3.10
2023-04-07T12:43:06.207Z,3.20
2023-04-07T12:48:08.991Z,3.20
2023-04-07T12:53:11.961Z,3.10
2023-04-07T12:58:15.018Z,3.20
2023-04-07T13:03:17.933Z,3.10
2023-04-07T13:08:21.780Z,3.10
2023-04-07T13:13:24.805Z,3.10
2023-04-07T13:18:27.942Z,3.10
2023-04-07T13:28:35.934Z,3.10
2023-04-07T13:33:38.545Z,3.20
2023-04-07T13:38:42.714Z,3.20
2023-04-07T13:43:45.766Z,3.10
2023-04-07T13:48:48.421Z,3.10
2023-04-07T13:53:51.587Z,3.10
2023-04-07T13:58:54.627Z,3.10
2023-04-07T14:04:00.732Z,3.20
2023-04-07T14:09:04.403Z,3.20
2023-04-07T14:14:07.560Z,3.20
2023-04-07T14:19:10.947Z,3.20
2023-04-07T14:24:13.678Z,3.20
2023-04-07T14:29:16.364Z,3.30
2023-04-07T14:34:19.119Z,3.20
2023-04-07T14:39:23.860Z,3.20
2023-04-07T14:44:26.684Z,3.20
2023-04-07T14:49:29.357Z,3.20
2023-04-07T14:54:32.064Z,3.20
2023-04-07T14:59:34.848Z,3.20
2023-04-07T15:04:37.636Z,3.20
2023-04-07T15:09:40.954Z,3.10
2023-04-07T15:14:45.610Z,3.20
2023-04-07T15:19:48.582Z,3.20
2023-04-07T15:24:51.326Z,3.20
2023-04-07T15:29:54.061Z,3.30
2023-04-07T15:34:56.731Z,3.30
2023-04-07T15:39:59.496Z,3.20
2023-04-07T15:45:02.457Z,3.20
2023-04-07T15:50:05.939Z,3.20
2023-04-07T15:55:09.234Z,3.20
2023-04-07T16:00:12.283Z,3.20
2023-04-07T16:05:15.122Z,3.30
2023-04-07T16:10:20.163Z,3.30
2023-04-07T16:15:36.842Z,3.20
2023-04-07T16:20:43.138Z,3.30
2023-04-07T16:25:45.922Z,3.20
2023-04-07T16:30:48.656Z,3.20
2023-04-07T16:35:51.410Z,3.20
2023-04-07T16:41:03.286Z,3.10
2023-04-07T16:46:07.027Z,3.00
2023-04-07T16:51:09.860Z,3.00
2023-04-07T16:56:22.221Z,3.00
2023-04-07T17:01:25.976Z,2.90
2023-04-07T17:06:29.052Z,3.00
2023-04-07T17:11:31.815Z,3.00
2023-04-07T17:16:34.815Z,3.00
2023-04-07T17:21:38.073Z,2.90
2023-04-07T17:26:41.053Z,2.90
2023-04-07T17:31:44.149Z,2.90
2023-04-07T17:36:47.085Z,2.90
2023-04-07T17:41:49.893Z,3.00
2023-04-07T17:46:52.728Z,2.90
2023-04-07T17:51:55.847Z,2.80
2023-04-07T17:56:58.566Z,2.80
2023-04-07T18:02:01.451Z,2.80
2023-04-07T18:07:05.275Z,2.80
2023-04-07T18:12:08.243Z,2.80
2023-04-07T18:17:11.274Z,2.80
2023-04-07T18:22:16.383Z,2.80
2023-04-07T18:27:20.422Z,2.80
2023-04-07T18:32:24.470Z,2.80
2023-04-07T18:37:27.572Z,2.90
2023-04-07T18:42:30.711Z,2.90
2023-04-07T18:47:33.613Z,2.90
2023-04-07T18:52:36.676Z,2.90
2023-04-07T18:57:40.536Z,2.90
2023-04-07T19:02:44.913Z,2.90
2023-04-07T19:07:47.975Z,3.00
2023-04-07T19:12:51.481Z,3.00
2023-04-07T19:17:54.594Z,3.00
2023-04-07T19:22:58.001Z,3.00
2023-04-07T19:28:00.985Z,3.00
2023-04-07T19:33:04.149Z,3.00
2023-04-07T19:38:07.802Z,3.00
2023-04-07T19:43:11.011Z,3.00
2023-04-07T19:48:13.925Z,3.00
2023-04-07T19:53:18.151Z,3.00
2023-04-07T19:58:22.995Z,3.00
2023-04-07T20:03:25.949Z,3.10
2023-04-07T20:08:28.897Z,3.00
2023-04-07T20:13:33.379Z,3.10
2023-04-07T20:18:36.150Z,3.10
2023-04-07T20:23:39.288Z,3.10
2023-04-07T20:28:42.316Z,3.10
2023-04-07T20:33:45.706Z,3.10
2023-04-07T20:38:48.955Z,3.00
2023-04-07T20:43:52.785Z,3.00
2023-04-07T20:48:55.541Z,3.00
2023-04-07T20:53:58.498Z,3.00
2023-04-07T20:59:01.569Z,3.00
2023-04-07T21:04:04.547Z,3.00
2023-04-07T21:09:08.906Z,3.00
2023-04-07T21:14:11.950Z,3.00
2023-04-07T21:19:14.769Z,3.00
2023-04-07T21:24:17.502Z,3.10
2023-04-07T21:29:22.069Z,3.00
2023-04-07T21:34:24.747Z,3.00
2023-04-07T21:39:27.746Z,3.10
2023-04-07T21:44:31.913Z,3.10
2023-04-07T21:49:34.654Z,3.10
2023-04-07T21:54:37.347Z,3.20
2023-04-07T21:59:40.116Z,3.20
2023-04-07T22:04:42.942Z,3.20
2023-04-07T22:09:46.227Z,3.10
2023-04-07T22:14:49.026Z,3.20
2023-04-07T22:19:51.911Z,3.30
2023-04-07T22:24:54.839Z,3.30
2023-04-07T22:29:57.536Z,3.30
2023-04-07T22:35:00.294Z,3.10
2023-04-07T22:40:03.855Z,3.10
2023-04-07T22:45:07.305Z,3.10
2023-04-07T22:50:10.285Z,3.10
2023-04-07T22:55:12.932Z,3.10
2023-04-07T23:00:15.845Z,2.90
2023-04-07T23:05:18.698Z,3.10
2023-04-07T23:10:21.597Z,3.00
2023-04-07T23:15:24.312Z,3.10
2023-04-07T23:20:27.122Z,3.10
2023-04-07T23:25:29.944Z,3.10
2023-04-07T23:30:32.559Z,3.10
2023-04-07T23:35:35.153Z,3.10
2023-04-07T23:40:37.887Z,3.00
2023-04-07T23:45:40.486Z,2.90
2023-04-07T23:50:43.104Z,2.80
2023-04-07T23:55:45.890Z,2.80
